createdAt,value
2023-03-17T00:02:00.010Z,2.67
2023-03-17T00:04:28.804Z,2.90
2023-03-17T00:06:57.926Z,4.00
2023-03-17T00:09:26.473Z,2.75
2023-03-17T00:11:54.796Z,2.50
2023-03-17T00:14:24.706Z,2.88
2023-03-17T00:16:54.539Z,2.63
2023-03-17T00:19:27.873Z,2.88
2023-03-17T00:21:56.750Z,3.10
2023-03-17T00:24:25.118Z,2.80
2023-03-17T00:26:53.482Z,2.83
2023-03-17T00:29:21.827Z,2.15
2023-03-17T00:31:51.726Z,2.72
2023-03-17T00:34:21.417Z,2.70
2023-03-17T00:36:51.928Z,2.78
2023-03-17T00:39:20.853Z,2.78
2023-03-17T00:41:49.295Z,2.72
2023-03-17T00:44:17.595Z,2.65
2023-03-17T00:46:46.514Z,3.25
2023-03-17T00:49:21.603Z,3.13
2023-03-17T00:51:50.874Z,3.05
2023-03-17T00:54:20.689Z,2.60
2023-03-17T00:56:50.909Z,2.80
2023-03-17T00:59:28.137Z,3.13
2023-03-17T01:01:57.063Z,2.90
2023-03-17T01:04:26.817Z,2.83
2023-03-17T01:06:55.425Z,3.08
2023-03-17T01:09:26.992Z,2.88
2023-03-17T01:11:55.794Z,3.53
2023-03-17T01:14:24.755Z,3.13
2023-03-17T01:16:55.299Z,3.17
2023-03-17T01:19:24.284Z,3.28
2023-03-17T01:21:53.811Z,2.65
2023-03-17T01:24:22.112Z,3.47
2023-03-17T01:26:51.034Z,2.95
2023-03-17T01:29:19.334Z,3.33
2023-03-17T01:31:47.763Z,3.70
2023-03-17T01:34:16.522Z,3.10
2023-03-17T01:36:44.768Z,3.03
2023-03-17T01:39:15.257Z,3.03
2023-03-17T01:41:43.695Z,3.10
2023-03-17T01:44:17.083Z,3.05
2023-03-17T01:46:46.111Z,3.17
2023-03-17T01:49:23.182Z,2.85
2023-03-17T01:51:58.729Z,3.42
2023-03-17T01:54:34.770Z,3.10
2023-03-17T01:57:09.343Z,3.00
2023-03-17T01:59:42.278Z,3.00
2023-03-17T02:02:14.743Z,3.25
2023-03-17T02:04:43.523Z,2.88
2023-03-17T02:07:12.571Z,3.30
2023-03-17T02:09:42.803Z,2.78
2023-03-17T02:12:13.576Z,2.80
2023-03-17T02:14:41.917Z,3.22
2023-03-17T02:17:10.284Z,3.88
2023-03-17T02:19:39.136Z,3.20
2023-03-17T02:22:09.496Z,3.53
2023-03-17T02:24:40.766Z,3.10
2023-03-17T02:27:13.780Z,2.90
2023-03-17T02:29:42.149Z,3.30
2023-03-17T02:32:11.462Z,2.67
2023-03-17T02:34:39.932Z,3.10
2023-03-17T02:37:09.709Z,3.63
2023-03-17T02:39:38.087Z,2.60
2023-03-17T02:42:07.496Z,3.67
2023-03-17T02:44:36.094Z,3.25
2023-03-17T02:47:04.412Z,2.60
2023-03-17T02:49:33.986Z,2.90
2023-03-17T02:52:02.671Z,3.05
2023-03-17T02:54:32.670Z,2.67
2023-03-17T02:57:01.625Z,2.80
2023-03-17T02:59:30.704Z,3.75
2023-03-17T03:01:59.476Z,3.00
2023-03-17T03:04:29.679Z,3.25
2023-03-17T03:06:58.174Z,3.47
2023-03-17T03:09:26.595Z,3.00
2023-03-17T03:11:56.248Z,2.80
2023-03-17T03:14:24.685Z,3.28
2023-03-17T03:16:53.169Z,3.63
2023-03-17T03:19:22.398Z,3.70
2023-03-17T03:21:50.959Z,3.17
2023-03-17T03:24:19.373Z,3.40
2023-03-17T03:26:47.745Z,3.17
2023-03-17T03:29:17.863Z,3.38
2023-03-17T03:31:48.187Z,4.40
2023-03-17T03:34:16.854Z,3.75
2023-03-17T03:36:45.287Z,4.22
2023-03-17T03:39:14.587Z,3.17
2023-03-17T03:41:43.309Z,3.45
2023-03-17T03:44:12.729Z,3.17
2023-03-17T03:46:42.358Z,3.58
2023-03-17T03:49:12.990Z,3.25
2023-03-17T03:51:41.553Z,3.67
2023-03-17T03:54:09.807Z,3.33
2023-03-17T03:56:38.538Z,3.40
2023-03-17T03:59:07.359Z,3.47
2023-03-17T04:01:38.756Z,3.42
2023-03-17T04:04:08.841Z,3.35
2023-03-17T04:06:37.177Z,3.60
2023-03-17T04:09:05.815Z,3.53
2023-03-17T04:11:34.033Z,3.45
2023-03-17T04:14:02.739Z,3.53
2023-03-17T04:16:31.132Z,3.47
2023-03-17T04:18:59.580Z,3.25
2023-03-17T04:21:29.219Z,3.80
2023-03-17T04:23:57.543Z,3.20
2023-03-17T04:26:25.771Z,3.67
2023-03-17T04:28:54.907Z,3.85
2023-03-17T04:31:23.289Z,3.50
2023-03-17T04:33:52.004Z,3.63
2023-03-17T04:36:21.951Z,3.47
2023-03-17T04:38:52.352Z,3.63
2023-03-17T04:41:21.412Z,3.65
2023-03-17T04:43:50.122Z,3.80
2023-03-17T04:46:19.361Z,3.30
2023-03-17T04:48:47.807Z,3.80
2023-03-17T04:51:17.398Z,3.08
2023-03-17T04:53:46.160Z,3.20
2023-03-17T04:56:16.317Z,3.15
2023-03-17T04:58:45.170Z,2.85
2023-03-17T05:01:13.955Z,3.55
2023-03-17T05:03:42.419Z,2.78
2023-03-17T05:06:11.039Z,3.40
2023-03-17T05:08:40.345Z,3.85
2023-03-17T05:11:08.850Z,3.85
2023-03-17T05:13:38.801Z,3.28
2023-03-17T05:16:08.584Z,3.33
2023-03-17T05:18:37.902Z,3.20
2023-03-17T05:21:07.671Z,2.35
2023-03-17T05:23:36.293Z,3.20
2023-03-17T05:26:05.482Z,3.05
2023-03-17T05:28:34.038Z,3.00
2023-03-17T05:31:03.853Z,3.45
2023-03-17T05:33:33.026Z,3.47
2023-03-17T05:36:01.849Z,4.15
2023-03-17T05:38:30.354Z,3.20
2023-03-17T05:40:58.931Z,3.03
2023-03-17T05:43:27.721Z,2.88
2023-03-17T05:45:55.947Z,3.35
2023-03-17T05:48:26.541Z,3.08
2023-03-17T05:50:54.976Z,3.20
2023-03-17T05:53:24.727Z,3.10
2023-03-17T05:55:56.246Z,3.53
2023-03-17T05:58:31.695Z,3.05
2023-03-17T06:01:00.526Z,3.15
2023-03-17T06:03:31.565Z,3.40
2023-03-17T06:06:00.098Z,3.22
2023-03-17T06:08:28.312Z,3.38
2023-03-17T06:10:56.804Z,3.25
2023-03-17T06:13:25.136Z,2.97
2023-03-17T06:15:53.437Z,3.35
2023-03-17T06:18:24.733Z,2.90
2023-03-17T06:20:55.034Z,3.28
2023-03-17T06:23:24.332Z,2.95
2023-03-17T06:25:52.589Z,3.10
2023-03-17T06:28:21.017Z,3.20
2023-03-17T06:30:49.357Z,3.33
2023-03-17T06:33:19.258Z,3.38
2023-03-17T06:35:47.561Z,4.38
2023-03-17T06:38:17.166Z,6.80
2023-03-17T06:40:45.630Z,2.70
2023-03-17T06:43:14.387Z,2.42
2023-03-17T06:45:42.756Z,2.45
2023-03-17T06:48:11.515Z,2.30
2023-03-17T06:50:39.852Z,2.03
2023-03-17T06:53:08.299Z,2.15
2023-03-17T06:55:37.852Z,2.20
2023-03-17T06:58:06.182Z,2.10
2023-03-17T07:00:34.413Z,1.90
2023-03-17T07:03:03.243Z,2.28
2023-03-17T07:05:32.169Z,2.10
2023-03-17T07:08:00.994Z,1.92
2023-03-17T07:10:29.472Z,2.20
2023-03-17T07:12:59.729Z,1.73
2023-03-17T07:15:28.194Z,1.92
2023-03-17T07:17:56.743Z,1.50
2023-03-17T07:20:25.024Z,1.83
2023-03-17T07:22:54.053Z,2.08
2023-03-17T07:25:22.544Z,1.98
2023-03-17T07:27:51.948Z,2.38
2023-03-17T07:30:22.456Z,2.60
2023-03-17T07:32:50.928Z,2.78
2023-03-17T07:35:19.693Z,2.47
2023-03-17T07:37:49.126Z,2.33
2023-03-17T07:40:18.628Z,2.60
2023-03-17T07:42:46.987Z,2.22
2023-03-17T07:45:15.492Z,2.58
2023-03-17T07:47:46.692Z,2.15
2023-03-17T07:50:15.352Z,2.30
2023-03-17T07:52:43.680Z,2.75
2023-03-17T07:55:19.757Z,2.60
2023-03-17T07:57:48.099Z,2.70
2023-03-17T08:00:20.447Z,2.50
2023-03-17T08:03:06.899Z,2.10
2023-03-17T08:05:37.676Z,1.92
2023-03-17T08:08:06.739Z,1.90
2023-03-17T08:10:35.919Z,2.05
2023-03-17T08:13:05.244Z,2.20
2023-03-17T08:15:33.580Z,1.90
2023-03-17T08:18:03.794Z,2.00
2023-03-17T08:20:32.599Z,2.00
2023-03-17T08:23:01.835Z,1.48
2023-03-17T08:25:40.348Z,1.65
2023-03-17T08:28:09.540Z,1.83
2023-03-17T08:30:38.887Z,1.77
2023-03-17T08:33:09.385Z,1.50
2023-03-17T08:35:38.323Z,2.25
2023-03-17T08:38:06.612Z,1.50
2023-03-17T08:40:34.978Z,1.52
2023-03-17T08:43:03.328Z,1.60
2023-03-17T08:45:35.424Z,1.52
2023-03-17T08:48:04.340Z,1.30
2023-03-17T08:50:35.582Z,1.67
2023-03-17T08:53:04.395Z,1.80
2023-03-17T08:55:34.061Z,1.77
2023-03-17T08:58:02.862Z,1.30
2023-03-17T09:00:31.293Z,1.50
2023-03-17T09:03:00.034Z,1.60
2023-03-17T09:05:28.983Z,1.58
2023-03-17T09:07:58.916Z,1.80
2023-03-17T09:10:27.334Z,2.00
2023-03-17T09:13:02.733Z,1.67
2023-03-17T09:15:32.308Z,1.60
2023-03-17T09:18:01.726Z,1.70
2023-03-17T09:20:30.618Z,1.70
2023-03-17T09:23:01.432Z,2.22
2023-03-17T09:25:29.931Z,1.85
2023-03-17T09:27:58.816Z,1.85
2023-03-17T09:30:27.165Z,1.55
2023-03-17T09:32:55.619Z,1.63
2023-03-17T09:35:24.163Z,1.80
2023-03-17T09:38:00.183Z,1.40
2023-03-17T09:40:33.199Z,1.40
2023-03-17T09:43:13.516Z,1.45
2023-03-17T09:45:43.723Z,1.60
2023-03-17T09:48:26.189Z,1.27
2023-03-17T09:51:00.010Z,1.48
2023-03-17T09:53:34.370Z,1.83
2023-03-17T09:56:08.197Z,1.25
2023-03-17T09:58:38.965Z,1.70
2023-03-17T10:01:13.263Z,1.52
2023-03-17T10:03:42.813Z,1.27
2023-03-17T10:06:38.965Z,1.40
2023-03-17T10:09:19.659Z,1.48
2023-03-17T10:11:50.077Z,1.58
2023-03-17T10:14:40.619Z,1.45
2023-03-17T10:17:17.543Z,1.35
2023-03-17T10:19:49.714Z,1.60
2023-03-17T10:22:23.687Z,1.83
2023-03-17T10:24:56.071Z,1.50
2023-03-17T10:27:24.717Z,1.52
2023-03-17T10:29:53.122Z,1.45
2023-03-17T10:32:22.475Z,1.63
2023-03-17T10:34:51.064Z,1.35
2023-03-17T10:37:21.202Z,1.30
2023-03-17T10:39:51.862Z,1.23
2023-03-17T10:42:26.093Z,1.33
2023-03-17T10:44:58.079Z,1.42
2023-03-17T10:47:38.247Z,1.00
2023-03-17T10:50:21.632Z,1.30
2023-03-17T10:52:55.757Z,1.30
2023-03-17T10:55:30.227Z,1.50
2023-03-17T10:58:06.104Z,1.20
2023-03-17T11:00:36.624Z,1.25
2023-03-17T11:03:13.229Z,1.40
2023-03-17T11:05:41.654Z,1.27
2023-03-17T11:08:18.007Z,1.50
2023-03-17T11:10:47.485Z,1.10
2023-03-17T11:13:19.955Z,1.05
2023-03-17T11:15:54.399Z,1.20
2023-03-17T11:18:28.144Z,1.20
2023-03-17T11:21:00.995Z,1.10
2023-03-17T11:23:48.772Z,1.30
2023-03-17T11:26:52.662Z,1.30
2023-03-17T11:29:35.208Z,1.70
2023-03-17T11:32:22.250Z,1.30
2023-03-17T11:35:09.773Z,1.00
2023-03-17T11:37:55.570Z,1.10
2023-03-17T11:40:33.814Z,1.10
2023-03-17T11:43:20.494Z,1.00
2023-03-17T11:45:53.893Z,1.40
2023-03-17T11:48:33.121Z,1.30
2023-03-17T11:51:08.287Z,1.25
2023-03-17T11:54:00.216Z,1.33
2023-03-17T11:56:38.198Z,1.27
2023-03-17T11:59:14.111Z,1.17
2023-03-17T12:01:54.783Z,1.30
2023-03-17T12:04:30.851Z,1.40
2023-03-17T12:07:08.854Z,1.58
2023-03-17T12:09:42.218Z,1.38
2023-03-17T12:12:16.238Z,1.45
2023-03-17T12:14:48.848Z,1.30
2023-03-17T12:17:25.882Z,1.40
2023-03-17T12:20:11.217Z,1.50
2023-03-17T12:22:44.077Z,1.27
2023-03-17T12:25:18.649Z,1.00
2023-03-17T12:27:55.296Z,1.50
2023-03-17T12:30:29.287Z,1.15
2023-03-17T12:33:12.019Z,1.60
2023-03-17T12:35:40.633Z,1.30
2023-03-17T12:38:13.725Z,1.55
2023-03-17T12:41:13.237Z,1.60
2023-03-17T12:43:59.315Z,1.63
2023-03-17T12:46:59.088Z,1.20
2023-03-17T12:49:47.882Z,1.30
2023-03-17T12:52:34.661Z,1.38
2023-03-17T12:55:06.173Z,1.60
2023-03-17T12:57:41.478Z,1.50
2023-03-17T13:00:25.242Z,1.48
2023-03-17T13:03:13.860Z,1.50
2023-03-17T13:05:48.079Z,1.50
2023-03-17T13:08:24.534Z,1.63
2023-03-17T13:11:12.958Z,1.65
2023-03-17T13:13:59.112Z,1.80
2023-03-17T13:16:29.599Z,1.48
2023-03-17T13:19:21.650Z,1.27
2023-03-17T13:22:36.482Z,1.55
2023-03-17T13:25:31.101Z,1.70
2023-03-17T13:28:19.120Z,1.40
2023-03-17T13:31:09.834Z,1.40
2023-03-17T13:33:43.988Z,1.25
2023-03-17T13:36:29.986Z,1.52
2023-03-17T13:39:25.006Z,1.40
2023-03-17T13:42:19.020Z,1.27
2023-03-17T13:45:21.856Z,1.33
2023-03-17T13:47:52.730Z,1.27
2023-03-17T13:50:25.606Z,1.40
2023-03-17T13:52:57.564Z,1.17
2023-03-17T13:55:39.876Z,1.40
2023-03-17T13:58:35.949Z,1.17
2023-03-17T14:01:09.104Z,1.00
2023-03-17T14:03:43.480Z,1.23
2023-03-17T14:06:13.511Z,1.08
2023-03-17T14:08:46.864Z,1.20
2023-03-17T14:11:36.555Z,1.50
2023-03-17T14:14:29.666Z,1.10
2023-03-17T14:17:06.495Z,1.23
2023-03-17T14:19:39.012Z,1.38
2023-03-17T14:22:21.740Z,1.40
2023-03-17T14:24:54.348Z,1.40
2023-03-17T14:27:25.432Z,1.27
2023-03-17T14:29:54.696Z,1.00
2023-03-17T14:32:26.475Z,1.20
2023-03-17T14:34:59.630Z,1.10
2023-03-17T14:37:29.338Z,1.10
2023-03-17T14:39:59.348Z,1.45
2023-03-17T14:42:31.694Z,1.02
2023-03-17T14:45:06.062Z,1.30
2023-03-17T14:47:41.026Z,1.38
2023-03-17T14:50:18.302Z,1.20
2023-03-17T14:52:46.714Z,1.05
2023-03-17T14:55:17.058Z,1.00
2023-03-17T14:57:53.769Z,1.20
2023-03-17T15:00:34.197Z,1.50
2023-03-17T15:03:05.369Z,1.52
2023-03-17T15:05:40.755Z,1.05
2023-03-17T15:08:46.212Z,1.08
2023-03-17T15:11:24.886Z,1.23
2023-03-17T15:14:04.920Z,1.30
2023-03-17T15:16:36.643Z,1.08
2023-03-17T15:19:08.323Z,0.95
2023-03-17T15:21:41.614Z,1.00
2023-03-17T15:24:35.179Z,1.20
2023-03-17T15:27:05.593Z,1.40
2023-03-17T15:29:35.548Z,1.05
2023-03-17T15:32:12.776Z,0.90
2023-03-17T15:34:41.408Z,1.13
2023-03-17T15:37:20.614Z,1.10
2023-03-17T15:39:50.760Z,0.70
2023-03-17T15:42:21.066Z,0.88
2023-03-17T15:44:50.867Z,1.23
2023-03-17T15:47:21.463Z,1.17
2023-03-17T15:49:51.468Z,1.00
2023-03-17T15:52:25.019Z,1.10
2023-03-17T15:54:54.788Z,1.30
2023-03-17T15:57:23.684Z,1.30
2023-03-17T15:59:53.940Z,1.30
2023-03-17T16:02:29.172Z,1.30
2023-03-17T16:04:58.788Z,1.30
2023-03-17T16:07:27.152Z,1.73
2023-03-17T16:09:55.591Z,1.27
2023-03-17T16:12:24.056Z,1.10
2023-03-17T16:14:54.258Z,1.42
2023-03-17T16:17:28.812Z,1.10
2023-03-17T16:19:58.748Z,1.13
2023-03-17T16:22:39.346Z,1.23
2023-03-17T16:25:20.533Z,1.42
2023-03-17T16:27:49.638Z,1.27
2023-03-17T16:30:21.199Z,0.80
2023-03-17T16:32:52.856Z,1.10
2023-03-17T16:35:22.815Z,1.00
2023-03-17T16:37:54.255Z,0.90
2023-03-17T16:40:25.580Z,1.25
2023-03-17T16:42:56.966Z,1.15
2023-03-17T16:45:32.866Z,1.23
2023-03-17T16:48:02.946Z,1.23
2023-03-17T16:50:34.045Z,1.50
2023-03-17T16:53:02.374Z,1.20
2023-03-17T16:55:30.938Z,1.20
2023-03-17T16:58:02.109Z,1.20
2023-03-17T17:00:33.197Z,1.10
2023-03-17T17:03:01.886Z,1.13
2023-03-17T17:05:31.435Z,1.08
2023-03-17T17:08:02.786Z,1.15
2023-03-17T17:10:34.161Z,1.17
2023-03-17T17:13:03.138Z,1.15
2023-03-17T17:15:35.123Z,1.20
2023-03-17T17:18:05.720Z,1.10
2023-03-17T17:20:36.113Z,1.13
2023-03-17T17:23:04.721Z,1.23
2023-03-17T17:25:33.704Z,1.50
2023-03-17T17:28:05.783Z,1.08
2023-03-17T17:30:35.698Z,1.27
2023-03-17T17:33:07.119Z,1.25
2023-03-17T17:35:36.127Z,1.10
2023-03-17T17:38:07.050Z,1.10
2023-03-17T17:40:37.403Z,1.30
2023-03-17T17:43:05.761Z,1.10
2023-03-17T17:45:36.024Z,1.17
2023-03-17T17:48:04.420Z,1.20
2023-03-17T17:50:33.422Z,1.20
2023-03-17T17:53:05.449Z,1.17
2023-03-17T17:55:34.738Z,1.10
2023-03-17T17:58:03.684Z,1.10
2023-03-17T18:00:32.787Z,1.42
2023-03-17T18:03:02.866Z,1.40
2023-03-17T18:05:32.327Z,1.15
2023-03-17T18:08:02.422Z,1.33
2023-03-17T18:10:31.486Z,1.20
2023-03-17T18:13:00.247Z,1.20
2023-03-17T18:15:29.853Z,1.20
2023-03-17T18:18:00.098Z,1.38
2023-03-17T18:20:30.503Z,1.20
2023-03-17T18:22:59.024Z,1.10
2023-03-17T18:25:27.921Z,1.30
2023-03-17T18:27:57.112Z,1.20
2023-03-17T18:30:28.657Z,1.00
2023-03-17T18:33:01.491Z,1.20
2023-03-17T18:35:31.709Z,1.30
2023-03-17T18:38:01.490Z,1.00
2023-03-17T18:40:30.338Z,1.00
2023-03-17T18:42:58.782Z,1.50
2023-03-17T18:45:27.109Z,1.50
2023-03-17T18:47:55.831Z,1.13
2023-03-17T18:50:24.463Z,1.00
2023-03-17T18:52:55.737Z,1.13
2023-03-17T18:55:27.303Z,1.30
2023-03-17T18:57:55.820Z,1.92
2023-03-17T19:00:25.330Z,1.10
2023-03-17T19:02:54.211Z,1.30
2023-03-17T19:05:29.862Z,1.30
2023-03-17T19:07:59.436Z,1.05
2023-03-17T19:10:27.863Z,1.20
2023-03-17T19:12:58.693Z,1.27
2023-03-17T19:15:32.222Z,1.23
2023-03-17T19:18:01.680Z,1.80
2023-03-17T19:20:34.891Z,1.40
2023-03-17T19:23:11.427Z,1.20
2023-03-17T19:25:41.795Z,1.23
2023-03-17T19:28:10.147Z,1.30
2023-03-17T19:30:39.058Z,1.02
2023-03-17T19:33:09.173Z,1.33
2023-03-17T19:35:37.928Z,1.58
2023-03-17T19:38:08.238Z,1.63
2023-03-17T19:40:38.021Z,1.50
2023-03-17T19:43:07.138Z,1.60
2023-03-17T19:45:35.464Z,1.30
2023-03-17T19:48:03.614Z,1.60
2023-03-17T19:50:32.859Z,1.50
2023-03-17T19:53:01.490Z,1.60
2023-03-17T19:55:37.049Z,1.35
2023-03-17T19:58:06.358Z,1.40
2023-03-17T20:00:34.611Z,1.30
2023-03-17T20:03:02.911Z,1.27
2023-03-17T20:05:31.459Z,1.15
2023-03-17T20:07:59.636Z,1.33
2023-03-17T20:10:27.901Z,1.52
2023-03-17T20:12:57.588Z,1.20
2023-03-17T20:15:25.816Z,1.20
2023-03-17T20:17:54.161Z,1.65
2023-03-17T20:20:22.507Z,1.60
2023-03-17T20:22:51.068Z,1.38
2023-03-17T20:25:19.508Z,1.70
2023-03-17T20:27:48.342Z,1.00
2023-03-17T20:30:18.458Z,1.50
2023-03-17T20:32:46.964Z,1.23
2023-03-17T20:35:15.754Z,1.25
2023-03-17T20:37:45.020Z,1.38
2023-03-17T20:40:14.382Z,1.00
2023-03-17T20:42:42.960Z,1.60
2023-03-17T20:45:11.448Z,1.25
2023-03-17T20:47:41.423Z,1.55
2023-03-17T20:50:10.669Z,1.20
2023-03-17T20:52:39.736Z,1.38
2023-03-17T20:55:09.428Z,1.20
2023-03-17T20:57:38.142Z,1.40
2023-03-17T21:00:08.339Z,1.25
2023-03-17T21:02:36.776Z,1.45
2023-03-17T21:05:07.392Z,1.70
2023-03-17T21:07:35.784Z,1.13
2023-03-17T21:10:04.606Z,1.48
2023-03-17T21:12:43.647Z,1.35
2023-03-17T21:15:14.070Z,1.15
2023-03-17T21:17:43.083Z,1.33
2023-03-17T21:20:14.811Z,1.58
2023-03-17T21:22:43.394Z,1.48
2023-03-17T21:25:12.830Z,1.30
2023-03-17T21:27:42.707Z,1.33
2023-03-17T21:30:14.397Z,1.20
2023-03-17T21:32:43.708Z,1.10
2023-03-17T21:35:13.441Z,1.33
2023-03-17T21:37:41.795Z,1.33
2023-03-17T21:40:13.987Z,1.50
2023-03-17T21:42:42.558Z,1.30
2023-03-17T21:45:11.481Z,1.30
2023-03-17T21:47:40.954Z,1.63
2023-03-17T21:50:09.836Z,1.20
2023-03-17T21:52:39.534Z,1.30
2023-03-17T21:55:09.393Z,1.60
2023-03-17T21:57:38.061Z,1.95
2023-03-17T22:00:07.902Z,1.23
2023-03-17T22:02:36.536Z,1.48
2023-03-17T22:05:05.432Z,1.45
2023-03-17T22:07:33.911Z,1.38
2023-03-17T22:10:07.133Z,1.35
2023-03-17T22:12:36.349Z,1.33
2023-03-17T22:15:05.489Z,1.33
2023-03-17T22:17:34.851Z,1.60
2023-03-17T22:20:04.091Z,1.48
2023-03-17T22:22:32.410Z,1.60
2023-03-17T22:25:01.615Z,1.40
2023-03-17T22:27:32.056Z,1.55
2023-03-17T22:30:00.930Z,1.98
2023-03-17T22:32:29.556Z,1.55
2023-03-17T22:34:58.191Z,1.40
2023-03-17T22:37:26.696Z,1.67
2023-03-17T22:39:55.293Z,2.10
2023-03-17T22:42:23.639Z,1.52
2023-03-17T22:44:54.025Z,2.15
2023-03-17T22:47:22.624Z,2.05
2023-03-17T22:49:51.716Z,2.13
2023-03-17T22:52:20.075Z,2.22
2023-03-17T22:54:48.544Z,2.22
2023-03-17T22:57:17.038Z,2.13
2023-03-17T22:59:45.567Z,1.92
2023-03-17T23:02:18.412Z,1.67
2023-03-17T23:04:47.020Z,2.00
2023-03-17T23:07:17.284Z,1.90
2023-03-17T23:09:48.392Z,1.98
2023-03-17T23:12:17.917Z,2.08
2023-03-17T23:14:46.835Z,1.92
2023-03-17T23:17:16.552Z,1.80
2023-03-17T23:19:44.758Z,1.88
2023-03-17T23:22:13.293Z,2.17
2023-03-17T23:24:41.665Z,2.15
2023-03-17T23:27:10.882Z,2.13
2023-03-17T23:29:39.242Z,2.00
2023-03-17T23:32:08.322Z,1.83
2023-03-17T23:34:38.217Z,1.42
2023-03-17T23:37:06.594Z,1.80
2023-03-17T23:39:35.247Z,1.73
2023-03-17T23:42:04.391Z,1.98
2023-03-17T23:44:32.826Z,2.17
2023-03-17T23:47:01.590Z,2.42
2023-03-17T23:49:29.809Z,2.13
2023-03-17T23:51:59.599Z,2.00
2023-03-17T23:54:28.698Z,2.03
2023-03-17T23:56:57.201Z,2.08
2023-03-17T23:59:25.483Z,2.33
